Time;durP1;ratioP1;P1;durP2;ratioP2;P2;SDS_P1;SDS_P2;PMS_P1;PMS_P2;Temp;Humidity;BMP_temperature;BMP_pressure;BME280_temperature;BME280_humidity;BME280_pressure;Samples;Min_cycle;Max_cycle;Signal;HPM_P1;HPM_P2
2022/10/08 00:02:22;;;;;;;14.02;10.23;;;12.30;84.10;;;;;;5015734;28;20033;-59
2022/10/08 00:04:48;;;;;;;14.68;10.48;;;12.30;84.10;;;;;;5014543;28;20045;-58
2022/10/08 00:07:15;;;;;;;13.55;9.88;;;12.30;84.20;;;;;;5013672;28;20034;-59
2022/10/08 00:09:41;;;;;;;12.75;10.10;;;12.30;84.20;;;;;;5013166;28;20042;-60
2022/10/08 00:12:06;;;;;;;15.30;10.90;;;12.30;84.20;;;;;;5014073;28;20613;-60
2022/10/08 00:14:32;;;;;;;12.57;10.32;;;12.30;84.10;;;;;;5014379;28;20412;-60
2022/10/08 00:16:57;;;;;;;12.75;10.32;;;12.30;84.00;;;;;;5014221;28;20660;-60
2022/10/08 00:19:23;;;;;;;12.43;10.32;;;12.30;84.00;;;;;;5015115;28;20041;-58
2022/10/08 00:21:52;;;;;;;14.45;10.82;;;12.30;84.20;;;;;;5013321;28;20046;-59
2022/10/08 00:24:20;;;;;;;16.73;11.25;;;12.30;84.30;;;;;;5014479;28;20085;-59
2022/10/08 00:26:45;;;;;;;13.65;10.27;;;12.30;84.30;;;;;;5012626;28;20046;-59
2022/10/08 00:29:16;;;;;;;13.27;10.85;;;12.30;84.30;;;;;;5014233;28;20052;-59
2022/10/08 00:31:44;;;;;;;14.13;10.77;;;12.30;84.60;;;;;;5014668;28;20072;-59
2022/10/08 00:34:22;;;;;;;15.63;10.52;;;12.30;84.50;;;;;;5013623;28;20047;-59
2022/10/08 00:36:51;;;;;;;14.48;11.05;;;12.30;84.80;;;;;;5013172;28;20121;-59
2022/10/08 00:39:19;;;;;;;16.05;11.50;;;12.30;84.50;;;;;;5013613;28;20513;-58
2022/10/08 00:41:51;;;;;;;16.00;11.88;;;12.30;84.50;;;;;;5014757;28;20038;-58
2022/10/08 00:44:58;;;;;;;16.02;11.95;;;12.30;84.80;;;;;;5014307;28;20374;-60
2022/10/08 00:47:26;;;;;;;16.20;11.68;;;12.30;85.20;;;;;;5014497;28;20044;-59
2022/10/08 00:49:56;;;;;;;17.50;11.60;;;12.30;84.80;;;;;;5011573;28;20080;-59
2022/10/08 00:52:24;;;;;;;14.98;11.35;;;12.30;85.20;;;;;;5014200;28;20168;-58
2022/10/08 00:54:50;;;;;;;15.90;11.93;;;12.30;85.30;;;;;;5014825;28;20045;-58
2022/10/08 00:57:17;;;;;;;16.85;11.90;;;12.30;85.30;;;;;;5017297;28;20037;-58
2022/10/08 00:59:43;;;;;;;18.48;12.48;;;12.30;85.30;;;;;;5016047;28;20043;-60
2022/10/08 01:02:10;;;;;;;15.68;12.63;;;12.40;85.40;;;;;;5020051;28;20041;-58
2022/10/08 01:04:38;;;;;;;15.32;11.73;;;12.40;85.50;;;;;;5015444;28;21486;-56
2022/10/08 01:07:39;;;;;;;17.50;12.27;;;12.40;85.60;;;;;;5019204;28;20533;-58
2022/10/08 01:10:26;;;;;;;15.98;12.15;;;12.40;86.20;;;;;;5020551;28;20041;-59
2022/10/08 01:13:06;;;;;;;17.23;13.18;;;12.40;86.10;;;;;;5016475;28;20481;-60
2022/10/08 01:16:02;;;;;;;15.70;12.38;;;12.50;86.30;;;;;;5019981;28;20030;-60
2022/10/08 01:18:50;;;;;;;17.90;12.20;;;12.50;86.50;;;;;;5011810;28;20045;-60
2022/10/08 01:21:16;;;;;;;16.98;12.32;;;12.50;86.10;;;;;;5018840;28;20056;-58
2022/10/08 01:27:33;;;;;;;16.10;12.52;;;12.50;86.30;;;;;;4951923;28;20535;-59
2022/10/08 01:30:04;;;;;;;18.02;12.88;;;12.50;86.00;;;;;;5016220;28;20529;-60
2022/10/08 01:32:47;;;;;;;16.38;13.05;;;12.50;85.80;;;;;;5016332;28;20048;-59
2022/10/08 01:35:19;;;;;;;15.07;12.32;;;12.60;85.90;;;;;;5014813;28;20493;-58
2022/10/08 01:37:46;;;;;;;15.55;12.32;;;12.60;85.70;;;;;;5015461;28;20052;-59
2022/10/08 01:40:20;;;;;;;14.85;11.93;;;12.60;85.60;;;;;;5016032;28;20037;-60
2022/10/08 01:42:48;;;;;;;16.23;12.70;;;12.60;85.90;;;;;;5014319;28;20102;-59
2022/10/08 01:45:18;;;;;;;16.05;12.05;;;12.60;85.60;;;;;;5016397;28;20029;-59
2022/10/08 01:47:47;;;;;;;14.25;11.88;;;12.60;85.50;;;;;;5015463;28;20385;-59
2022/10/08 01:50:21;;;;;;;15.82;11.45;;;12.50;85.40;;;;;;5015428;28;20083;-57
2022/10/08 01:52:54;;;;;;;20.02;11.93;;;12.60;85.30;;;;;;5017980;28;20037;-59
2022/10/08 01:55:27;;;;;;;16.80;12.18;;;12.50;85.20;;;;;;5014504;28;22477;-58
2022/10/08 01:57:58;;;;;;;15.93;11.80;;;12.60;85.30;;;;;;5016206;28;20087;-60
2022/10/08 02:00:24;;;;;;;19.30;12.55;;;12.50;85.00;;;;;;5015255;28;20033;-57
2022/10/08 02:02:49;;;;;;;18.80;12.50;;;12.50;85.00;;;;;;5014978;28;20528;-57
2022/10/08 02:05:15;;;;;;;16.85;12.90;;;12.50;85.00;;;;;;5015798;28;20040;-59
2022/10/08 02:07:42;;;;;;;19.05;13.07;;;12.40;85.20;;;;;;5013127;28;20447;-57
2022/10/08 02:10:07;;;;;;;17.90;13.20;;;12.40;85.50;;;;;;5015994;28;20488;-59
2022/10/08 02:12:34;;;;;;;17.55;13.50;;;12.40;85.50;;;;;;5014157;28;20045;-59
2022/10/08 02:15:01;;;;;;;18.40;13.23;;;12.40;85.60;;;;;;5014630;28;20049;-59
2022/10/08 02:18:05;;;;;;;19.33;13.25;;;12.40;85.70;;;;;;5016272;28;20029;-60
2022/10/08 02:20:49;;;;;;;17.73;13.52;;;12.40;86.10;;;;;;5013126;28;20041;-56
2022/10/08 02:23:36;;;;;;;17.17;13.60;;;12.40;86.20;;;;;;5014885;28;20025;-59
2022/10/08 02:26:08;;;;;;;17.08;13.82;;;12.40;86.60;;;;;;5016513;28;20033;-59
2022/10/08 02:28:48;;;;;;;17.42;13.75;;;12.40;86.20;;;;;;5010622;28;20183;-60
2022/10/08 02:31:43;;;;;;;20.60;14.07;;;12.50;86.60;;;;;;5015524;28;20034;-59
2022/10/08 02:34:21;;;;;;;18.73;14.05;;;12.50;86.80;;;;;;5004240;28;20507;-58
2022/10/08 02:37:06;;;;;;;18.30;13.15;;;12.50;86.40;;;;;;5016056;28;20489;-60
2022/10/08 02:39:35;;;;;;;18.33;14.07;;;12.60;86.60;;;;;;5015316;28;20041;-59
2022/10/08 02:42:05;;;;;;;20.27;15.25;;;12.60;86.30;;;;;;5017327;28;20041;-59
2022/10/08 02:44:41;;;;;;;21.65;15.60;;;12.60;86.40;;;;;;5014356;28;20397;-59
2022/10/08 02:47:12;;;;;;;22.60;15.55;;;12.60;86.60;;;;;;5015235;28;20034;-58
2022/10/08 02:49:42;;;;;;;21.02;15.65;;;12.60;86.60;;;;;;5014010;28;20438;-59
2022/10/08 02:52:09;;;;;;;23.00;15.40;;;12.70;86.80;;;;;;5017773;28;20050;-59
2022/10/08 02:54:41;;;;;;;18.83;14.70;;;12.60;86.60;;;;;;5015143;28;20037;-61
2022/10/08 02:57:32;;;;;;;19.90;14.98;;;12.70;86.80;;;;;;5015867;28;20127;-60
2022/10/08 02:59:58;;;;;;;18.80;14.48;;;12.70;86.80;;;;;;5014560;28;20043;-60
2022/10/08 03:02:35;;;;;;;19.35;15.55;;;12.70;86.60;;;;;;5014260;28;20468;-58
2022/10/08 03:05:12;;;;;;;21.90;15.02;;;12.70;86.70;;;;;;5011948;28;20042;-59
2022/10/08 03:07:37;;;;;;;20.77;15.82;;;12.80;86.60;;;;;;5013159;28;20041;-59
2022/10/08 03:10:06;;;;;;;19.40;15.30;;;12.80;86.50;;;;;;5014527;28;20037;-58
2022/10/08 03:12:32;;;;;;;20.10;15.32;;;12.80;86.50;;;;;;5015932;28;20216;-60
2022/10/08 03:14:59;;;;;;;19.85;15.05;;;12.80;86.50;;;;;;5015188;28;20052;-59
2022/10/08 03:17:30;;;;;;;19.67;15.25;;;12.80;86.60;;;;;;5015514;28;20084;-59
2022/10/08 03:19:56;;;;;;;18.33;14.95;;;12.80;86.70;;;;;;5015616;28;20409;-59
2022/10/08 03:22:23;;;;;;;19.05;14.98;;;12.90;86.70;;;;;;5012029;28;20026;-60
2022/10/08 03:24:48;;;;;;;21.92;15.23;;;12.90;86.70;;;;;;5014796;28;21015;-59
2022/10/08 03:27:14;;;;;;;17.63;13.90;;;12.90;86.60;;;;;;5012270;28;20063;-59
2022/10/08 03:29:40;;;;;;;20.23;15.00;;;12.90;86.60;;;;;;5012454;28;20047;-60
2022/10/08 03:32:05;;;;;;;19.85;14.88;;;12.90;86.60;;;;;;5013323;28;20030;-59
2022/10/08 03:34:31;;;;;;;20.27;14.73;;;12.90;86.60;;;;;;5014817;28;20145;-60
2022/10/08 03:36:57;;;;;;;19.00;15.35;;;13.00;86.70;;;;;;5013336;28;20120;-60
2022/10/08 03:39:22;;;;;;;21.50;15.73;;;13.00;86.60;;;;;;5012605;28;20133;-60
2022/10/08 03:41:48;;;;;;;21.42;16.60;;;13.00;86.70;;;;;;5013984;28;20034;-61
2022/10/08 03:44:13;;;;;;;20.88;15.93;;;13.00;86.70;;;;;;5012905;28;20041;-60
2022/10/08 03:46:39;;;;;;;19.27;15.25;;;13.00;86.80;;;;;;5006435;28;20119;-60
2022/10/08 03:49:05;;;;;;;21.25;16.58;;;13.00;86.80;;;;;;5016057;28;20638;-60
2022/10/08 03:51:30;;;;;;;20.88;16.85;;;13.00;86.90;;;;;;5014086;28;20037;-59
2022/10/08 03:53:56;;;;;;;22.90;17.52;;;13.00;87.00;;;;;;5014574;28;20302;-57
2022/10/08 03:56:23;;;;;;;22.65;17.35;;;13.00;87.00;;;;;;5013085;28;20546;-58
2022/10/08 03:58:59;;;;;;;24.88;18.90;;;13.10;87.10;;;;;;5013893;28;20186;-60
2022/10/08 04:01:26;;;;;;;28.00;20.02;;;13.10;87.30;;;;;;5015628;28;20049;-59
2022/10/08 04:03:52;;;;;;;23.55;18.38;;;13.10;87.00;;;;;;5012196;28;20087;-60
2022/10/08 04:06:18;;;;;;;25.88;18.50;;;13.10;86.90;;;;;;5014764;28;20034;-60
2022/10/08 04:08:44;;;;;;;26.30;19.67;;;13.10;86.90;;;;;;5013145;28;20138;-58
2022/10/08 04:11:11;;;;;;;29.58;20.40;;;13.10;87.00;;;;;;5013169;28;20037;-59
2022/10/08 04:13:38;;;;;;;26.33;19.13;;;13.10;87.10;;;;;;5014034;28;20094;-59
2022/10/08 04:16:13;;;;;;;24.98;19.15;;;13.10;87.10;;;;;;5014451;28;20521;-58
2022/10/08 04:18:39;;;;;;;25.08;20.35;;;13.20;87.40;;;;;;5013263;28;20390;-57
2022/10/08 04:21:07;;;;;;;22.92;18.67;;;13.20;87.20;;;;;;5014858;28;20365;-60
2022/10/08 04:23:35;;;;;;;22.60;17.77;;;13.20;87.10;;;;;;5013752;28;20132;-59
2022/10/08 04:26:01;;;;;;;20.98;17.15;;;13.20;87.30;;;;;;5014637;28;20032;-58
2022/10/08 04:28:27;;;;;;;19.35;15.40;;;13.20;88.50;;;;;;5011881;28;20033;-59
2022/10/08 04:30:57;;;;;;;23.98;17.67;;;13.20;87.80;;;;;;5012990;28;20507;-58
2022/10/08 04:33:23;;;;;;;27.45;18.95;;;13.20;87.70;;;;;;5011493;28;20616;-58
2022/10/08 04:35:48;;;;;;;41.83;27.80;;;13.20;87.50;;;;;;5013609;28;20427;-60
2022/10/08 04:38:14;;;;;;;37.03;24.42;;;13.20;87.30;;;;;;5014610;28;20057;-58
2022/10/08 04:40:39;;;;;;;33.13;23.40;;;13.20;88.20;;;;;;5014329;28;20030;-60
2022/10/08 04:43:05;;;;;;;31.85;22.83;;;13.20;87.40;;;;;;5017217;28;20543;-59
2022/10/08 04:45:30;;;;;;;29.60;21.10;;;13.10;87.40;;;;;;5018275;28;20048;-60
2022/10/08 04:47:56;;;;;;;28.05;20.15;;;13.20;87.40;;;;;;5015489;28;20053;-59
2022/10/08 04:50:22;;;;;;;24.15;18.98;;;13.20;87.40;;;;;;5019283;28;20030;-59
2022/10/08 04:52:47;;;;;;;24.05;18.95;;;13.20;87.30;;;;;;5018739;28;20030;-60
2022/10/08 04:55:13;;;;;;;22.38;17.42;;;13.20;87.40;;;;;;5017174;28;20050;-60
2022/10/08 04:57:38;;;;;;;21.08;16.90;;;13.10;87.70;;;;;;5019050;28;20037;-59
2022/10/08 05:00:05;;;;;;;20.65;16.20;;;13.10;88.00;;;;;;5016795;28;20513;-57
2022/10/08 05:02:31;;;;;;;20.02;16.80;;;13.10;88.10;;;;;;5015774;28;20492;-59
2022/10/08 05:04:57;;;;;;;24.17;17.88;;;13.10;88.00;;;;;;5017057;28;20121;-59
2022/10/08 05:07:23;;;;;;;23.58;18.90;;;13.20;88.00;;;;;;5017698;28;20075;-58
2022/10/08 05:09:49;;;;;;;22.70;18.17;;;13.20;88.00;;;;;;5014835;28;20037;-58
2022/10/08 05:12:15;;;;;;;23.00;18.00;;;13.20;87.80;;;;;;5016788;28;20038;-59
2022/10/08 05:14:40;;;;;;;19.83;16.40;;;13.20;87.60;;;;;;5015088;28;20558;-58
2022/10/08 05:17:06;;;;;;;20.85;15.70;;;13.20;87.50;;;;;;5017003;28;20041;-58
2022/10/08 05:19:31;;;;;;;21.23;15.05;;;13.20;87.50;;;;;;5016641;28;20047;-58
2022/10/08 05:21:57;;;;;;;18.88;15.57;;;13.20;87.40;;;;;;5018366;28;20520;-59
2022/10/08 05:24:23;;;;;;;22.63;17.35;;;13.20;87.50;;;;;;5015096;28;20079;-58
2022/10/08 05:26:50;;;;;;;20.40;16.40;;;13.20;87.60;;;;;;5015840;28;20520;-59
2022/10/08 05:29:17;;;;;;;21.75;18.30;;;13.20;87.80;;;;;;5016091;28;20526;-59
2022/10/08 05:31:43;;;;;;;21.10;16.95;;;13.20;88.00;;;;;;5017491;28;20440;-56
2022/10/08 05:34:10;;;;;;;20.52;17.30;;;13.20;88.20;;;;;;5016293;28;20049;-60
2022/10/08 05:36:36;;;;;;;26.60;17.73;;;13.20;88.10;;;;;;5016158;28;20034;-58
2022/10/08 05:39:04;;;;;;;22.05;18.05;;;13.20;88.10;;;;;;5016083;28;20045;-59
2022/10/08 05:41:32;;;;;;;21.75;16.10;;;13.10;88.00;;;;;;5015995;28;20034;-59
2022/10/08 05:44:00;;;;;;;23.17;18.67;;;13.20;88.00;;;;;;5017231;28;20124;-59
2022/10/08 05:46:28;;;;;;;21.55;17.73;;;13.20;88.00;;;;;;5014193;28;20037;-59
2022/10/08 05:48:56;;;;;;;21.08;17.80;;;13.20;87.80;;;;;;4999546;28;20049;-59
2022/10/08 05:51:22;;;;;;;22.85;17.42;;;13.20;87.70;;;;;;5016329;28;20029;-60
2022/10/08 05:53:49;;;;;;;20.92;16.73;;;13.20;87.60;;;;;;5015149;28;20133;-60
2022/10/08 05:56:18;;;;;;;19.88;17.02;;;13.20;87.60;;;;;;5014735;28;20500;-56
2022/10/08 05:58:44;;;;;;;22.08;18.23;;;13.20;87.70;;;;;;5016360;28;20033;-58
2022/10/08 06:01:19;;;;;;;22.48;17.70;;;13.20;87.70;;;;;;5014071;28;20038;-58
2022/10/08 06:03:53;;;;;;;20.98;17.55;;;13.20;88.00;;;;;;5015353;28;20084;-58
2022/10/08 06:06:20;;;;;;;24.25;18.73;;;13.20;88.00;;;;;;5014237;28;20029;-56
2022/10/08 06:08:45;;;;;;;21.10;18.05;;;13.30;87.90;;;;;;5014593;28;20792;-60
2022/10/08 06:11:12;;;;;;;31.17;23.13;;;13.30;88.00;;;;;;5016238;28;20045;-58
2022/10/08 06:13:37;;;;;;;26.55;20.50;;;13.30;88.10;;;;;;5014093;28;20348;-60
2022/10/08 06:16:04;;;;;;;25.90;20.48;;;13.40;88.10;;;;;;5016899;28;20065;-59
2022/10/08 06:18:33;;;;;;;25.80;19.83;;;13.40;88.20;;;;;;5015891;28;20113;-60
2022/10/08 06:21:10;;;;;;;26.55;19.73;;;13.40;88.20;;;;;;5014763;28;20136;-59
2022/10/08 06:23:37;;;;;;;24.60;20.35;;;13.50;88.50;;;;;;5016432;28;20469;-61
2022/10/08 06:26:08;;;;;;;33.05;21.60;;;13.50;88.20;;;;;;5014040;28;20602;-60
2022/10/08 06:28:36;;;;;;;28.42;20.30;;;13.50;88.30;;;;;;5013856;28;20125;-58
2022/10/08 06:31:02;;;;;;;25.80;20.00;;;13.60;88.40;;;;;;5015720;28;20542;-58
2022/10/08 06:33:28;;;;;;;23.83;18.52;;;13.60;88.30;;;;;;5015174;28;20037;-60
2022/10/08 06:35:54;;;;;;;28.20;19.58;;;13.60;88.20;;;;;;5015765;28;20382;-60
2022/10/08 06:38:20;;;;;;;22.88;17.42;;;13.70;88.40;;;;;;5015889;28;20125;-59
2022/10/08 06:40:46;;;;;;;21.50;17.55;;;13.70;88.50;;;;;;5014265;28;20037;-59
2022/10/08 06:43:13;;;;;;;21.88;17.65;;;13.70;88.70;;;;;;5016954;28;20067;-60
2022/10/08 06:45:41;;;;;;;23.20;18.30;;;13.70;88.80;;;;;;5015292;28;20042;-59
2022/10/08 06:48:07;;;;;;;21.15;17.27;;;13.80;89.00;;;;;;5014956;28;20100;-60
2022/10/08 06:50:34;;;;;;;21.00;17.23;;;13.80;89.00;;;;;;5015208;28;20164;-60
2022/10/08 06:52:59;;;;;;;20.35;17.70;;;13.80;89.10;;;;;;5016765;28;20053;-60
2022/10/08 06:55:25;;;;;;;21.63;17.40;;;13.90;89.30;;;;;;5017262;28;20064;-61
2022/10/08 06:57:51;;;;;;;20.63;17.00;;;13.90;89.30;;;;;;5015141;28;20160;-60
2022/10/08 07:00:17;;;;;;;22.10;16.45;;;13.90;89.30;;;;;;5017085;28;20057;-60
2022/10/08 07:02:43;;;;;;;21.88;16.92;;;14.00;89.40;;;;;;5010867;28;20175;-57
2022/10/08 07:05:09;;;;;;;22.98;18.52;;;14.00;89.30;;;;;;5019068;28;20038;-59
2022/10/08 07:07:35;;;;;;;21.27;17.88;;;14.10;89.50;;;;;;5015660;28;20053;-60
2022/10/08 07:10:02;;;;;;;22.05;17.08;;;14.10;89.50;;;;;;5015699;28;20539;-59
2022/10/08 07:12:28;;;;;;;23.30;18.38;;;14.10;89.60;;;;;;5015550;28;20042;-59
2022/10/08 07:14:53;;;;;;;20.45;17.73;;;14.20;89.70;;;;;;5014671;28;20052;-60
2022/10/08 07:17:19;;;;;;;22.50;17.02;;;14.30;89.90;;;;;;5017880;28;20429;-59
2022/10/08 07:19:45;;;;;;;23.00;18.42;;;14.30;89.90;;;;;;5013942;28;20060;-59
2022/10/08 07:22:10;;;;;;;25.52;18.17;;;14.30;90.00;;;;;;5018917;28;20494;-59
2022/10/08 07:24:36;;;;;;;22.55;18.55;;;14.40;90.00;;;;;;5014177;28;20049;-61
2022/10/08 07:27:01;;;;;;;24.05;19.38;;;14.40;90.20;;;;;;5017697;28;20045;-58
2022/10/08 07:29:27;;;;;;;24.92;19.85;;;14.50;90.20;;;;;;5015161;28;20036;-60
2022/10/08 07:31:52;;;;;;;23.13;18.48;;;14.60;90.20;;;;;;5015627;28;20162;-59
2022/10/08 07:34:18;;;;;;;22.02;18.30;;;14.60;90.20;;;;;;5016319;28;20496;-58
2022/10/08 07:36:44;;;;;;;23.23;18.45;;;14.70;90.20;;;;;;5014462;28;20042;-58
2022/10/08 07:39:17;;;;;;;22.92;18.02;;;14.70;90.20;;;;;;5013497;28;20044;-58
2022/10/08 07:41:43;;;;;;;23.05;18.42;;;14.80;90.40;;;;;;5016755;28;20042;-60
2022/10/08 07:44:10;;;;;;;22.73;17.85;;;14.90;90.30;;;;;;5015374;28;20566;-60
2022/10/08 07:46:40;;;;;;;22.20;18.55;;;14.90;90.30;;;;;;5013269;28;20125;-60
2022/10/08 07:49:06;;;;;;;23.65;18.80;;;15.00;90.40;;;;;;5014302;28;20080;-60
2022/10/08 07:51:33;;;;;;;25.13;19.27;;;15.00;90.40;;;;;;5014036;28;20148;-58
2022/10/08 07:53:59;;;;;;;28.70;20.50;;;15.10;90.40;;;;;;5011996;28;20033;-58
2022/10/08 07:56:25;;;;;;;26.52;20.13;;;15.20;90.50;;;;;;5015406;28;20037;-60
2022/10/08 07:58:51;;;;;;;25.67;20.80;;;15.30;90.60;;;;;;5008127;28;20053;-58
2022/10/08 08:01:22;;;;;;;24.75;20.17;;;15.30;90.60;;;;;;5004859;28;20036;-58
2022/10/08 08:03:53;;;;;;;24.67;19.23;;;15.40;90.60;;;;;;5011322;28;20057;-57
2022/10/08 08:06:18;;;;;;;24.20;18.45;;;15.50;90.50;;;;;;5015274;28;20041;-59
2022/10/08 08:08:44;;;;;;;24.13;19.30;;;15.50;90.40;;;;;;5016578;28;20080;-60
2022/10/08 08:11:14;;;;;;;22.88;19.02;;;15.60;90.40;;;;;;5011281;28;20036;-59
2022/10/08 08:13:41;;;;;;;23.00;18.33;;;15.60;90.40;;;;;;5013189;28;20514;-60
2022/10/08 08:16:19;;;;;;;23.00;18.33;;;15.70;90.40;;;;;;5021744;28;20044;-60
2022/10/08 08:18:47;;;;;;;20.55;17.70;;;15.80;90.40;;;;;;5017362;28;20044;-58
2022/10/08 08:21:16;;;;;;;23.35;18.38;;;15.80;90.20;;;;;;5020171;28;20118;-60
2022/10/08 08:23:44;;;;;;;21.02;17.77;;;15.90;90.20;;;;;;5020941;28;20037;-60
2022/10/08 08:26:15;;;;;;;21.73;18.30;;;15.90;90.20;;;;;;5020331;28;20116;-59
2022/10/08 08:28:41;;;;;;;20.75;17.70;;;16.00;89.90;;;;;;5016935;28;20080;-59
2022/10/08 08:31:16;;;;;;;25.40;18.92;;;16.00;90.20;;;;;;5014557;28;20108;-60
2022/10/08 08:33:45;;;;;;;23.67;18.30;;;16.10;90.20;;;;;;5019765;28;20132;-61
2022/10/08 08:36:12;;;;;;;25.45;18.23;;;16.10;90.10;;;;;;5018199;28;20045;-60
2022/10/08 08:38:38;;;;;;;22.05;18.58;;;16.20;90.10;;;;;;5018118;28;20059;-57
2022/10/08 08:41:25;;;;;;;24.52;19.60;;;16.30;90.10;;;;;;5019363;28;20501;-59
2022/10/08 08:44:19;;;;;;;22.58;18.63;;;16.30;90.50;;;;;;5019665;28;20037;-60
2022/10/08 08:47:03;;;;;;;25.80;19.02;;;16.40;90.20;;;;;;5019084;28;20036;-60
2022/10/08 08:49:44;;;;;;;22.27;18.15;;;16.50;90.10;;;;;;5019731;28;20048;-60
2022/10/08 08:52:14;;;;;;;20.95;17.23;;;16.50;90.00;;;;;;5019309;28;20041;-59
2022/10/08 08:54:39;;;;;;;22.88;17.70;;;16.60;89.90;;;;;;5016465;28;20128;-61
2022/10/08 08:57:29;;;;;;;22.83;17.77;;;16.70;89.80;;;;;;5018833;28;20116;-58
2022/10/08 09:00:06;;;;;;;19.88;16.40;;;16.70;89.80;;;;;;5020973;28;20045;-59
2022/10/08 09:02:44;;;;;;;22.38;16.55;;;16.80;89.50;;;;;;5019523;28;20094;-59
2022/10/08 09:05:13;;;;;;;22.73;16.55;;;16.80;89.20;;;;;;5024390;28;20037;-59
2022/10/08 09:08:18;;;;;;;19.92;16.48;;;16.90;89.00;;;;;;5019245;28;20041;-61
2022/10/08 09:10:58;;;;;;;19.27;15.80;;;16.90;88.70;;;;;;5014466;28;20054;-60
2022/10/08 09:13:29;;;;;;;20.77;15.75;;;17.00;88.80;;;;;;5018407;28;20636;-58
2022/10/08 09:15:55;;;;;;;19.63;16.15;;;17.10;88.60;;;;;;5020748;28;20799;-59
2022/10/08 09:18:21;;;;;;;21.00;16.02;;;17.10;88.50;;;;;;5019313;28;20785;-59
2022/10/08 09:20:47;;;;;;;19.92;15.35;;;17.10;88.30;;;;;;5013659;28;20038;-59
2022/10/08 09:23:19;;;;;;;17.60;15.20;;;17.20;88.30;;;;;;5018872;28;20072;-60
2022/10/08 09:26:08;;;;;;;18.08;14.73;;;17.30;88.10;;;;;;5013995;28;20444;-58
2022/10/08 09:28:38;;;;;;;18.13;15.07;;;17.30;88.00;;;;;;5017174;28;20738;-58
2022/10/08 09:31:19;;;;;;;19.52;15.25;;;17.40;88.00;;;;;;5019592;28;20662;-58
2022/10/08 09:33:51;;;;;;;16.15;13.63;;;17.40;87.60;;;;;;5015126;28;20461;-60
2022/10/08 09:36:32;;;;;;;17.42;13.45;;;17.50;87.60;;;;;;5007648;28;20053;-57
2022/10/08 09:38:59;;;;;;;15.35;10.90;;;17.50;87.30;;;;;;5016288;28;20039;-60
2022/10/08 09:41:27;;;;;;;13.98;10.93;;;17.60;87.10;;;;;;5004244;28;20041;-60
2022/10/08 09:44:18;;;;;;;14.05;10.93;;;17.60;86.80;;;;;;5014651;28;20038;-59
2022/10/08 09:46:45;;;;;;;12.85;10.55;;;17.70;86.20;;;;;;5020685;28;20075;-60
2022/10/08 09:49:28;;;;;;;12.85;10.70;;;17.70;86.10;;;;;;5015250;28;20045;-61
2022/10/08 09:51:56;;;;;;;13.00;10.45;;;17.70;85.40;;;;;;5017002;28;20253;-60
2022/10/08 09:54:36;;;;;;;14.07;11.38;;;17.70;85.70;;;;;;5013875;28;20042;-60
2022/10/08 09:57:02;;;;;;;14.93;11.20;;;17.70;85.60;;;;;;5016457;28;20046;-59
2022/10/08 09:59:30;;;;;;;14.27;11.40;;;17.80;85.80;;;;;;5014589;28;20033;-58
2022/10/08 10:01:56;;;;;;;16.80;11.38;;;17.80;85.70;;;;;;5018789;28;20088;-60
2022/10/08 10:04:33;;;;;;;15.77;11.57;;;17.80;85.70;;;;;;5013298;28;20052;-59
2022/10/08 10:07:00;;;;;;;14.27;11.88;;;17.80;85.70;;;;;;5014736;28;20042;-59
2022/10/08 10:09:38;;;;;;;14.93;12.05;;;17.80;85.80;;;;;;5010769;28;20049;-60
2022/10/08 10:12:04;;;;;;;14.73;12.48;;;17.90;85.90;;;;;;5012255;28;20099;-60
2022/10/08 10:15:08;;;;;;;17.17;12.43;;;17.90;85.90;;;;;;5012521;28;20168;-60
2022/10/08 10:17:46;;;;;;;13.13;11.18;;;17.90;85.70;;;;;;4937325;28;20122;-59
2022/10/08 10:20:19;;;;;;;16.85;11.00;;;17.90;85.40;;;;;;4939355;28;20043;-61
2022/10/08 10:22:52;;;;;;;12.95;11.38;;;17.90;85.20;;;;;;4986813;28;20091;-60
2022/10/08 10:25:38;;;;;;;13.07;10.85;;;17.90;85.00;;;;;;5013504;28;20065;-61
2022/10/08 10:28:10;;;;;;;16.63;11.60;;;18.00;84.30;;;;;;5011476;28;20516;-60
2022/10/08 10:31:04;;;;;;;15.90;12.25;;;18.00;84.50;;;;;;5015486;28;20458;-61
2022/10/08 10:33:35;;;;;;;15.77;11.38;;;17.90;84.20;;;;;;5013495;28;20386;-60
2022/10/08 10:36:07;;;;;;;15.27;11.38;;;17.90;84.50;;;;;;5014339;28;20092;-60
2022/10/08 10:38:38;;;;;;;16.45;11.18;;;17.90;84.50;;;;;;5011579;28;20421;-60
2022/10/08 10:41:32;;;;;;;18.45;11.40;;;17.90;84.60;;;;;;5013150;28;20061;-61
2022/10/08 10:43:59;;;;;;;18.40;12.40;;;17.90;84.50;;;;;;5016545;28;20405;-60
2022/10/08 10:46:35;;;;;;;14.55;12.57;;;18.00;84.60;;;;;;5015123;28;20049;-60
2022/10/08 10:49:01;;;;;;;14.93;11.82;;;18.00;84.40;;;;;;5011229;28;20488;-61
2022/10/08 10:51:30;;;;;;;14.45;11.80;;;17.90;84.40;;;;;;5018288;28;20431;-61
2022/10/08 10:54:26;;;;;;;15.23;12.02;;;17.90;84.60;;;;;;5016297;28;20092;-59
2022/10/08 10:57:06;;;;;;;;;;;17.90;85.00;;;;;;5009951;28;20038;-59
2022/10/08 10:59:46;;;;;;;18.10;12.80;;;18.00;85.00;;;;;;5017532;28;20336;-59
2022/10/08 11:02:21;;;;;;;15.65;12.20;;;18.00;85.90;;;;;;5016908;28;20044;-61
2022/10/08 11:04:53;;;;;;;18.40;13.13;;;17.90;85.10;;;;;;5016140;28;20508;-62
2022/10/08 11:07:43;;;;;;;15.32;13.07;;;17.90;85.30;;;;;;5018097;28;20547;-60
2022/10/08 11:10:27;;;;;;;18.90;13.13;;;17.90;85.70;;;;;;5014018;28;20401;-60
2022/10/08 11:13:05;;;;;;;16.67;12.75;;;18.00;85.20;;;;;;5016003;28;20045;-60
2022/10/08 11:15:37;;;;;;;17.08;13.60;;;18.00;84.90;;;;;;5015395;28;20041;-58
2022/10/08 11:18:25;;;;;;;20.02;13.50;;;18.00;85.20;;;;;;5017738;28;20036;-59
2022/10/08 11:20:59;;;;;;;16.35;13.38;;;18.00;85.10;;;;;;5015725;28;20040;-60
2022/10/08 11:24:08;;;;;;;18.00;13.15;;;18.00;85.30;;;;;;5014047;28;20068;-60
2022/10/08 11:26:51;;;;;;;17.40;13.27;;;18.00;85.60;;;;;;4978118;28;21092;-60
2022/10/08 11:29:23;;;;;;;18.42;13.73;;;18.00;85.70;;;;;;5015564;28;20045;-61
2022/10/08 11:31:50;;;;;;;16.90;13.35;;;18.00;86.00;;;;;;5016819;28;20041;-59
2022/10/08 11:34:36;;;;;;;16.25;12.50;;;18.00;85.70;;;;;;5015798;28;20470;-59
2022/10/08 11:37:23;;;;;;;16.27;12.13;;;18.00;85.50;;;;;;5015229;28;20045;-60
2022/10/08 11:39:54;;;;;;;19.60;13.45;;;17.90;85.30;;;;;;5015483;28;20509;-61
2022/10/08 11:42:27;;;;;;;20.17;12.93;;;17.90;85.20;;;;;;5015985;28;20076;-59
2022/10/08 11:44:52;;;;;;;20.55;13.60;;;17.90;85.60;;;;;;5015794;28;20092;-60
2022/10/08 11:47:40;;;;;;;18.23;13.45;;;17.90;85.50;;;;;;5015749;28;20436;-61
2022/10/08 11:50:25;;;;;;;18.90;12.57;;;17.90;86.10;;;;;;5017376;28;20060;-61
2022/10/08 11:52:52;;;;;;;;;;;17.90;86.20;;;;;;5012499;28;20052;-58
2022/10/08 11:55:31;;;;;;;16.95;12.30;;;18.00;86.40;;;;;;5012723;28;19920;-60
2022/10/08 11:58:02;;;;;;;19.40;13.70;;;18.00;85.90;;;;;;5014377;28;20037;-60
2022/10/08 12:00:44;;;;;;;17.10;12.90;;;18.00;85.90;;;;;;5017320;28;20207;-59
2022/10/08 12:03:40;;;;;;;14.13;10.27;;;18.00;85.60;;;;;;5016301;28;20383;-59
2022/10/08 12:06:13;;;;;;;12.93;9.32;;;18.10;84.60;;;;;;5013216;28;20041;-60
2022/10/08 12:08:59;;;;;;;12.23;8.85;;;18.10;84.50;;;;;;5015059;28;20048;-59
2022/10/08 12:11:31;;;;;;;9.50;7.18;;;18.10;83.70;;;;;;5014619;28;20042;-58
2022/10/08 12:14:12;;;;;;;10.25;6.32;;;18.10;83.40;;;;;;5014025;28;20036;-63
2022/10/08 12:16:47;;;;;;;9.05;6.43;;;18.00;83.10;;;;;;5012496;28;20045;-60
2022/10/08 12:19:31;;;;;;;;;;;18.00;82.60;;;;;;5015166;28;20032;-59
2022/10/08 12:22:04;;;;;;;6.82;5.35;;;18.00;83.00;;;;;;5009768;28;19932;-61
2022/10/08 12:24:38;;;;;;;10.52;6.03;;;18.00;83.60;;;;;;5016769;28;20030;-59
2022/10/08 12:27:16;;;;;;;9.07;5.57;;;18.00;83.60;;;;;;5013973;28;20044;-61
2022/10/08 12:29:55;;;;;;;8.70;6.80;;;18.10;82.70;;;;;;5014976;28;20539;-59
2022/10/08 12:32:26;;;;;;;10.45;7.32;;;18.00;82.60;;;;;;5014569;28;20129;-60
2022/10/08 12:34:52;;;;;;;11.25;6.28;;;18.10;82.60;;;;;;5015740;28;20041;-60
2022/10/08 12:37:40;;;;;;;8.90;5.70;;;18.00;81.90;;;;;;5014446;28;20047;-61
2022/10/08 12:40:28;;;;;;;8.02;4.95;;;18.00;81.00;;;;;;5015333;28;20045;-60
2022/10/08 12:43:28;;;;;;;8.02;4.10;;;18.00;81.40;;;;;;5015256;28;20046;-60
2022/10/08 12:46:19;;;;;;;6.53;3.90;;;18.00;80.50;;;;;;5011408;28;20040;-61
2022/10/08 12:49:11;;;;;;;8.68;3.67;;;18.00;80.80;;;;;;5015879;28;20345;-60
2022/10/08 12:51:58;;;;;;;9.10;4.40;;;18.10;80.30;;;;;;5002235;28;20394;-59
2022/10/08 12:54:27;;;;;;;8.00;4.00;;;18.00;80.30;;;;;;5016472;28;20124;-59
2022/10/08 12:56:53;;;;;;;6.75;4.20;;;18.10;80.50;;;;;;5015673;28;20034;-59